Time;durP1;ratioP1;P1;durP2;ratioP2;P2;SDS_P1;SDS_P2;PMS_P1;PMS_P2;Temp;Humidity;BMP_temperature;BMP_pressure;BME280_temperature;BME280_humidity;BME280_pressure;Samples;Min_cycle;Max_cycle;Signal;HPM_P1;HPM_P2
2024/04/04 00:00:41;;;;;;;8.73;3.10;;;11.20;99.90;;;;;;4916990;29;20039;-66
2024/04/04 00:03:07;;;;;;;8.27;2.70;;;11.20;99.90;;;;;;4918277;29;20031;-67
2024/04/04 00:05:33;;;;;;;9.95;2.70;;;11.20;99.90;;;;;;4917187;29;20036;-68
2024/04/04 00:07:59;;;;;;;8.00;2.63;;;11.20;99.90;;;;;;4917928;29;20024;-67
2024/04/04 00:10:25;;;;;;;10.27;2.78;;;11.20;99.90;;;;;;4917966;29;20409;-67
2024/04/04 00:12:52;;;;;;;7.78;2.58;;;11.20;99.90;;;;;;4918897;29;20028;-68
2024/04/04 00:15:18;;;;;;;10.23;2.83;;;11.10;99.90;;;;;;4921215;29;20031;-66
2024/04/04 00:17:46;;;;;;;8.77;2.70;;;11.10;99.90;;;;;;4917776;29;20020;-67
2024/04/04 00:20:14;;;;;;;7.65;2.85;;;11.20;99.90;;;;;;4921545;29;20024;-67
2024/04/04 00:22:45;;;;;;;8.88;2.80;;;11.20;99.90;;;;;;4916197;29;20028;-67
2024/04/04 00:25:12;;;;;;;11.98;3.10;;;11.10;99.90;;;;;;4916614;29;20042;-68
2024/04/04 00:27:38;;;;;;;8.20;2.85;;;11.10;99.90;;;;;;4919848;29;20444;-68
2024/04/04 00:30:05;;;;;;;7.80;2.95;;;11.10;99.90;;;;;;4918493;29;20477;-66
2024/04/04 00:32:31;;;;;;;8.52;2.92;;;11.10;99.90;;;;;;4916180;29;20024;-67
2024/04/04 00:34:57;;;;;;;7.38;2.72;;;11.10;99.90;;;;;;4918992;29;20099;-68
2024/04/04 00:37:22;;;;;;;10.15;2.90;;;11.10;99.90;;;;;;4919955;29;20088;-67
2024/04/04 00:39:48;;;;;;;8.18;2.63;;;11.10;99.90;;;;;;4917145;29;20032;-68
2024/04/04 00:42:14;;;;;;;8.63;3.08;;;11.10;99.90;;;;;;4920831;29;20028;-68
2024/04/04 00:44:39;;;;;;;8.02;2.60;;;11.00;99.90;;;;;;4921515;29;20961;-68
2024/04/04 00:47:06;;;;;;;15.32;3.25;;;11.10;99.90;;;;;;4918164;29;20036;-68
2024/04/04 00:49:31;;;;;;;10.63;2.92;;;11.10;99.90;;;;;;4921702;29;20055;-67
2024/04/04 00:51:57;;;;;;;8.88;3.08;;;11.10;99.90;;;;;;4917918;29;20062;-68
2024/04/04 00:54:24;;;;;;;10.25;3.10;;;11.10;99.90;;;;;;4921792;29;20020;-69
2024/04/04 00:56:49;;;;;;;8.60;3.10;;;11.10;99.90;;;;;;4922659;29;20055;-70
2024/04/04 00:59:15;;;;;;;9.45;3.15;;;11.10;99.90;;;;;;4917210;29;21020;-70
2024/04/04 01:01:44;;;;;;;11.07;3.25;;;11.10;99.90;;;;;;4913595;29;20040;-70
2024/04/04 01:04:11;;;;;;;7.47;2.92;;;11.10;99.90;;;;;;4915891;29;20043;-70
2024/04/04 01:06:40;;;;;;;11.13;3.25;;;11.10;99.90;;;;;;4920830;29;20035;-70
2024/04/04 01:09:05;;;;;;;11.98;3.17;;;11.00;99.90;;;;;;4923191;29;20043;-69
2024/04/04 01:11:31;;;;;;;9.95;3.20;;;11.00;99.90;;;;;;4922112;29;20023;-70
2024/04/04 01:13:57;;;;;;;9.93;3.15;;;11.00;99.90;;;;;;4919508;29;20110;-69
2024/04/04 01:16:23;;;;;;;9.85;3.13;;;11.00;99.90;;;;;;4918488;29;20060;-69
2024/04/04 01:18:49;;;;;;;10.38;2.83;;;11.00;99.90;;;;;;4917675;29;20071;-70
2024/04/04 01:21:15;;;;;;;10.18;3.25;;;11.00;99.90;;;;;;4915405;29;20027;-71
2024/04/04 01:23:43;;;;;;;9.27;3.10;;;11.00;99.90;;;;;;4911638;29;20156;-71
2024/04/04 01:26:09;;;;;;;8.10;3.20;;;11.00;99.90;;;;;;4918667;29;20663;-70
2024/04/04 01:28:35;;;;;;;7.00;2.63;;;11.00;99.90;;;;;;4921678;29;20114;-70
2024/04/04 01:31:01;;;;;;;8.05;2.65;;;11.00;99.90;;;;;;4916893;29;20039;-72
2024/04/04 01:33:27;;;;;;;8.45;3.03;;;11.00;99.90;;;;;;4922629;29;20504;-71
2024/04/04 01:35:53;;;;;;;8.88;3.10;;;11.00;99.90;;;;;;4918207;29;20052;-71
2024/04/04 01:38:19;;;;;;;7.97;2.75;;;11.00;99.90;;;;;;4922972;29;20094;-70
2024/04/04 01:40:45;;;;;;;9.40;3.25;;;11.00;99.90;;;;;;4921219;29;20167;-70
2024/04/04 01:43:10;;;;;;;7.75;2.78;;;11.00;99.90;;;;;;4924262;28;20099;-70
2024/04/04 01:45:36;;;;;;;8.50;2.92;;;11.00;99.90;;;;;;4923934;29;20035;-70
2024/04/04 01:48:02;;;;;;;9.93;2.90;;;11.00;99.90;;;;;;4923920;29;20027;-71
2024/04/04 01:50:28;;;;;;;11.60;3.30;;;11.00;99.90;;;;;;4924593;29;20035;-71
2024/04/04 01:52:54;;;;;;;11.30;3.17;;;11.00;99.90;;;;;;4929523;29;20155;-71
2024/04/04 01:55:19;;;;;;;10.27;3.13;;;10.90;99.90;;;;;;4920932;28;20028;-71
2024/04/04 01:57:45;;;;;;;10.52;3.33;;;10.90;99.90;;;;;;4920839;29;20040;-70
2024/04/04 02:00:11;;;;;;;8.00;3.28;;;10.90;99.90;;;;;;4923034;29;20035;-70
2024/04/04 02:02:37;;;;;;;9.48;2.95;;;11.00;99.90;;;;;;4920503;29;20512;-70
2024/04/04 02:05:03;;;;;;;9.63;2.85;;;10.90;99.90;;;;;;4919131;29;20032;-69
2024/04/04 02:07:29;;;;;;;11.73;3.20;;;10.90;99.90;;;;;;4921234;29;20039;-70
2024/04/04 02:09:55;;;;;;;9.40;2.67;;;10.90;99.90;;;;;;4922859;29;20020;-70
2024/04/04 02:12:20;;;;;;;11.48;2.80;;;11.00;99.90;;;;;;4925800;29;20052;-71
2024/04/04 02:14:46;;;;;;;7.60;3.20;;;10.90;99.90;;;;;;4943054;29;20028;-71
2024/04/04 02:17:12;;;;;;;8.02;3.10;;;10.90;99.90;;;;;;4940137;29;20036;-69
2024/04/04 02:19:38;;;;;;;8.50;2.80;;;10.90;99.90;;;;;;4918261;29;20170;-69
2024/04/04 02:22:03;;;;;;;11.18;2.83;;;10.90;99.90;;;;;;4919577;29;20516;-69
2024/04/04 02:24:29;;;;;;;6.90;2.60;;;10.90;99.90;;;;;;4919716;29;20489;-70
2024/04/04 02:26:55;;;;;;;10.63;2.80;;;10.90;99.90;;;;;;4920435;29;20058;-71
2024/04/04 02:29:20;;;;;;;11.32;2.92;;;10.90;99.90;;;;;;4922210;29;20106;-70
2024/04/04 02:31:46;;;;;;;8.93;2.78;;;10.90;99.90;;;;;;4921833;29;20043;-69
2024/04/04 02:34:12;;;;;;;7.55;2.78;;;10.90;99.90;;;;;;4920710;29;20054;-69
2024/04/04 02:36:39;;;;;;;11.48;3.20;;;10.90;99.90;;;;;;4924391;29;20031;-69
2024/04/04 02:39:05;;;;;;;8.50;2.60;;;10.90;99.90;;;;;;4924215;29;20215;-69
2024/04/04 02:41:30;;;;;;;9.40;2.85;;;10.90;99.90;;;;;;4919548;29;20115;-70
2024/04/04 02:43:56;;;;;;;10.25;3.03;;;10.80;99.90;;;;;;4920016;29;20023;-71
2024/04/04 02:46:23;;;;;;;7.90;2.78;;;10.80;99.90;;;;;;4919711;29;20103;-69
2024/04/04 02:48:48;;;;;;;12.05;3.00;;;10.80;99.90;;;;;;4922498;29;20028;-70
2024/04/04 02:51:14;;;;;;;9.88;2.80;;;10.80;99.90;;;;;;4921931;29;20547;-70
2024/04/04 02:53:40;;;;;;;7.75;2.30;;;10.80;99.90;;;;;;4920904;29;20032;-71
2024/04/04 02:56:06;;;;;;;11.60;2.60;;;10.80;99.90;;;;;;4924403;29;20504;-70
2024/04/04 02:58:32;;;;;;;9.70;2.63;;;10.80;99.90;;;;;;4927228;29;20050;-69
2024/04/04 03:01:03;;;;;;;9.05;2.50;;;10.80;99.90;;;;;;4925408;28;20028;-69
2024/04/04 03:03:29;;;;;;;9.82;3.03;;;10.70;99.90;;;;;;4919038;29;20472;-70
2024/04/04 03:05:55;;;;;;;8.82;2.83;;;10.70;99.90;;;;;;4920243;29;20030;-70
2024/04/04 03:08:20;;;;;;;7.93;2.47;;;10.60;99.90;;;;;;4921994;29;20031;-71
2024/04/04 03:10:46;;;;;;;12.60;2.88;;;10.60;99.90;;;;;;4919260;29;20388;-70
2024/04/04 03:13:12;;;;;;;5.82;2.13;;;10.60;99.90;;;;;;4920898;29;20449;-70
2024/04/04 03:15:38;;;;;;;9.15;2.20;;;10.60;99.90;;;;;;4920374;29;20044;-71
2024/04/04 03:18:03;;;;;;;6.75;2.17;;;10.50;99.90;;;;;;4919977;29;20080;-70
2024/04/04 03:20:29;;;;;;;10.40;2.50;;;10.50;99.90;;;;;;4920912;29;20038;-70
2024/04/04 03:22:57;;;;;;;9.00;2.20;;;10.50;99.90;;;;;;4893570;29;20028;-71
2024/04/04 03:25:25;;;;;;;10.48;2.42;;;10.50;99.90;;;;;;4928881;28;20035;-70
2024/04/04 03:27:50;;;;;;;8.32;2.53;;;10.50;99.90;;;;;;4924576;29;20024;-69
2024/04/04 03:30:16;;;;;;;12.20;2.42;;;10.50;99.90;;;;;;4922160;29;20035;-71
2024/04/04 03:32:42;;;;;;;8.40;2.17;;;10.40;99.90;;;;;;4921693;29;20032;-69
2024/04/04 03:35:08;;;;;;;8.13;2.00;;;10.40;99.90;;;;;;4918747;29;20015;-70
2024/04/04 03:37:34;;;;;;;8.70;2.25;;;10.40;99.90;;;;;;4918497;29;20040;-70
2024/04/04 03:40:00;;;;;;;6.45;2.00;;;10.30;99.90;;;;;;4921641;29;20460;-70
2024/04/04 03:42:26;;;;;;;10.07;2.45;;;10.30;99.90;;;;;;4922657;29;20541;-70
2024/04/04 03:44:55;;;;;;;8.65;2.40;;;10.30;99.90;;;;;;4923115;29;20114;-69
2024/04/04 03:47:21;;;;;;;7.97;2.53;;;10.30;99.90;;;;;;4919227;29;20040;-71
2024/04/04 03:49:47;;;;;;;8.32;2.38;;;10.30;99.90;;;;;;4940985;28;20478;-69
2024/04/04 03:52:16;;;;;;;6.95;2.30;;;10.30;99.90;;;;;;4927836;29;20075;-70
2024/04/04 03:54:41;;;;;;;6.65;1.77;;;10.20;99.90;;;;;;4924916;29;20039;-69
2024/04/04 03:57:08;;;;;;;9.07;1.80;;;10.20;99.90;;;;;;4919409;29;20028;-69
2024/04/04 03:59:37;;;;;;;8.75;2.10;;;10.20;99.90;;;;;;4916288;29;20031;-69
2024/04/04 04:02:04;;;;;;;11.57;1.85;;;10.20;99.90;;;;;;4920385;29;20020;-69
2024/04/04 04:04:29;;;;;;;9.57;1.98;;;10.10;99.90;;;;;;4922338;29;20028;-70
2024/04/04 04:06:55;;;;;;;8.85;2.10;;;10.20;99.90;;;;;;4916460;29;20554;-69
2024/04/04 04:09:21;;;;;;;9.82;1.80;;;10.10;99.90;;;;;;4918612;29;20027;-69
2024/04/04 04:11:46;;;;;;;6.82;1.70;;;10.10;99.90;;;;;;4921874;29;20447;-71
2024/04/04 04:14:15;;;;;;;9.57;2.08;;;10.00;99.90;;;;;;4917597;29;20413;-70
2024/04/04 04:16:41;;;;;;;9.48;2.50;;;10.10;99.90;;;;;;4918883;29;20480;-70
2024/04/04 04:19:07;;;;;;;8.82;1.90;;;10.10;99.90;;;;;;4918321;29;20110;-70
2024/04/04 04:21:32;;;;;;;7.88;1.70;;;10.10;99.90;;;;;;4920458;29;20034;-70
2024/04/04 04:24:00;;;;;;;9.55;1.92;;;10.00;99.90;;;;;;4918705;29;20384;-70
2024/04/04 04:26:26;;;;;;;8.65;1.75;;;10.00;99.90;;;;;;4915168;29;20040;-70
2024/04/04 04:28:52;;;;;;;4.95;1.67;;;10.00;99.90;;;;;;4923055;29;20023;-70
2024/04/04 04:31:28;;;;;;;8.38;1.65;;;10.00;99.90;;;;;;4923279;29;20166;-70
2024/04/04 04:33:56;;;;;;;6.03;1.70;;;9.90;99.90;;;;;;4919328;29;20054;-70
2024/04/04 04:36:24;;;;;;;7.03;1.63;;;9.90;99.90;;;;;;4914030;29;20505;-70
2024/04/04 04:38:51;;;;;;;7.22;1.77;;;9.90;99.90;;;;;;4921346;29;20036;-70
2024/04/04 04:41:18;;;;;;;9.57;2.05;;;9.90;99.90;;;;;;4922158;28;20024;-70
2024/04/04 04:43:46;;;;;;;11.07;1.75;;;9.80;99.90;;;;;;4915994;29;20035;-71
2024/04/04 04:46:16;;;;;;;7.97;1.73;;;9.80;99.90;;;;;;4918401;29;20050;-71
2024/04/04 04:48:42;;;;;;;7.57;1.67;;;9.70;99.90;;;;;;4919264;29;20842;-69
2024/04/04 04:51:08;;;;;;;9.43;1.58;;;9.70;99.90;;;;;;4920825;29;20023;-70
2024/04/04 04:53:34;;;;;;;9.18;1.92;;;9.70;99.90;;;;;;4916265;29;20027;-70
2024/04/04 04:56:00;;;;;;;8.05;1.83;;;9.70;99.90;;;;;;4917006;29;20043;-72
2024/04/04 04:58:26;;;;;;;10.25;1.50;;;9.70;99.90;;;;;;4916916;29;20028;-70
2024/04/04 05:00:52;;;;;;;10.02;1.90;;;9.70;99.90;;;;;;4913887;29;20105;-69
2024/04/04 05:03:20;;;;;;;7.40;1.77;;;9.60;99.90;;;;;;4919775;29;20495;-70
2024/04/04 05:05:46;;;;;;;7.25;1.75;;;9.60;99.90;;;;;;4918341;29;20056;-70
2024/04/04 05:08:14;;;;;;;8.68;1.90;;;9.60;99.90;;;;;;4915951;29;20036;-70
2024/04/04 05:10:41;;;;;;;8.43;1.50;;;9.60;99.90;;;;;;4918091;29;20043;-70
2024/04/04 05:13:06;;;;;;;6.72;1.50;;;9.60;99.90;;;;;;4919798;29;20016;-68
2024/04/04 05:15:46;;;;;;;6.55;1.58;;;9.60;99.90;;;;;;4917412;29;20020;-71
2024/04/04 05:18:11;;;;;;;9.00;1.80;;;9.60;99.90;;;;;;4922598;29;20411;-68
2024/04/04 05:20:38;;;;;;;7.20;2.00;;;9.60;99.90;;;;;;4917809;29;20041;-69
2024/04/04 05:23:03;;;;;;;10.05;1.75;;;9.70;99.90;;;;;;4918844;29;20035;-71
2024/04/04 05:25:29;;;;;;;10.95;1.88;;;9.70;99.90;;;;;;4919089;29;20038;-71
2024/04/04 05:27:55;;;;;;;7.53;1.33;;;9.70;99.90;;;;;;4919865;29;20098;-69
2024/04/04 05:30:21;;;;;;;6.75;1.50;;;9.80;99.90;;;;;;4918638;29;20032;-68
2024/04/04 05:32:46;;;;;;;12.02;1.80;;;10.00;99.90;;;;;;4921399;29;20023;-69
2024/04/04 05:35:14;;;;;;;10.07;1.70;;;10.10;99.90;;;;;;4919678;29;20374;-70
2024/04/04 05:37:40;;;;;;;8.30;1.50;;;10.10;99.90;;;;;;4926839;29;20119;-70
2024/04/04 05:40:08;;;;;;;7.78;1.33;;;10.10;99.90;;;;;;4929011;29;20063;-72
2024/04/04 05:42:34;;;;;;;8.88;1.83;;;10.10;99.90;;;;;;4926139;29;20040;-69
2024/04/04 05:45:00;;;;;;;5.80;1.50;;;10.10;99.90;;;;;;4921134;29;20039;-69
2024/04/04 05:47:26;;;;;;;7.28;1.60;;;10.10;99.90;;;;;;4919075;29;20043;-69
2024/04/04 05:49:52;;;;;;;8.07;1.80;;;10.00;99.90;;;;;;4921988;29;20500;-67
2024/04/04 05:52:18;;;;;;;6.20;1.60;;;10.10;99.90;;;;;;4921036;29;20488;-69
2024/04/04 05:54:47;;;;;;;7.20;1.50;;;10.00;99.90;;;;;;4933946;28;20076;-67
2024/04/04 05:57:14;;;;;;;4.90;1.30;;;10.10;99.90;;;;;;4917832;29;20031;-68
2024/04/04 05:59:40;;;;;;;8.60;1.65;;;10.10;99.90;;;;;;4917575;29;20082;-67
2024/04/04 06:02:06;;;;;;;7.22;1.70;;;10.10;99.90;;;;;;4913733;29;20123;-67
2024/04/04 06:04:32;;;;;;;8.55;1.50;;;10.10;99.90;;;;;;4915115;29;20527;-68
2024/04/04 06:06:57;;;;;;;7.10;1.50;;;10.10;99.90;;;;;;4915507;29;20024;-67
2024/04/04 06:09:23;;;;;;;9.15;1.48;;;10.10;99.90;;;;;;4919023;29;20082;-67
2024/04/04 06:11:49;;;;;;;6.05;1.50;;;10.10;99.90;;;;;;4917953;29;20524;-68
2024/04/04 06:14:14;;;;;;;5.72;1.30;;;10.10;99.90;;;;;;4922377;29;20048;-68
2024/04/04 06:16:41;;;;;;;6.43;1.80;;;10.20;99.90;;;;;;4917004;29;20021;-68
2024/04/04 06:19:06;;;;;;;5.45;1.40;;;10.20;99.90;;;;;;4920689;29;20090;-68
2024/04/04 06:21:32;;;;;;;7.38;1.63;;;10.20;99.90;;;;;;4920216;29;20126;-68
2024/04/04 06:23:58;;;;;;;8.18;1.60;;;10.20;99.90;;;;;;4918687;29;20032;-68
2024/04/04 06:26:26;;;;;;;9.68;1.40;;;10.20;99.90;;;;;;4924077;29;20051;-68
2024/04/04 06:28:55;;;;;;;7.20;1.50;;;10.20;99.90;;;;;;4921860;29;20039;-67
2024/04/04 06:31:22;;;;;;;8.38;1.55;;;10.30;99.90;;;;;;4905599;29;20043;-68
2024/04/04 06:33:48;;;;;;;5.65;1.30;;;10.30;99.90;;;;;;4919352;29;20035;-72
2024/04/04 06:36:15;;;;;;;5.93;1.40;;;10.30;99.90;;;;;;4921423;29;20032;-72
2024/04/04 06:38:41;;;;;;;8.73;1.73;;;10.30;99.90;;;;;;4919111;29;20394;-69
2024/04/04 06:41:07;;;;;;;8.80;1.73;;;10.30;99.90;;;;;;4917260;29;20037;-70
2024/04/04 06:43:33;;;;;;;7.43;1.67;;;10.30;99.90;;;;;;4925906;29;20096;-70
2024/04/04 06:45:58;;;;;;;5.88;1.83;;;10.40;99.90;;;;;;4920290;29;20028;-72
2024/04/04 06:48:24;;;;;;;8.85;1.70;;;10.40;99.90;;;;;;4920005;29;20031;-71
2024/04/04 06:50:50;;;;;;;6.32;1.58;;;10.40;99.90;;;;;;4923760;29;20034;-70
2024/04/04 06:53:15;;;;;;;7.28;1.63;;;10.40;99.90;;;;;;4922956;29;20094;-68
2024/04/04 06:55:42;;;;;;;6.75;1.80;;;10.50;99.90;;;;;;4922983;29;20027;-67
2024/04/04 06:58:08;;;;;;;10.10;1.60;;;10.50;99.90;;;;;;4926045;29;20110;-69
2024/04/04 07:00:34;;;;;;;8.55;1.90;;;10.50;99.90;;;;;;4923624;29;20055;-70
2024/04/04 07:02:59;;;;;;;8.02;2.03;;;10.50;99.90;;;;;;4918220;29;20032;-70
2024/04/04 07:05:25;;;;;;;7.32;1.73;;;10.50;99.90;;;;;;4916647;29;20034;-72
2024/04/04 07:07:51;;;;;;;10.70;1.73;;;10.50;99.90;;;;;;4921355;29;20047;-70
2024/04/04 07:10:17;;;;;;;10.10;1.90;;;10.60;99.90;;;;;;4920108;29;20036;-72
2024/04/04 07:12:43;;;;;;;10.48;2.05;;;10.60;99.90;;;;;;4919418;29;20020;-71
2024/04/04 07:15:09;;;;;;;5.88;2.10;;;10.60;99.90;;;;;;4920680;29;20032;-69
2024/04/04 07:17:34;;;;;;;8.65;2.17;;;10.60;99.90;;;;;;4926080;29;20024;-70
2024/04/04 07:20:00;;;;;;;9.60;2.00;;;10.60;99.90;;;;;;4918170;29;20032;-69
2024/04/04 07:22:26;;;;;;;8.93;1.90;;;10.70;99.90;;;;;;4922775;29;20409;-70
2024/04/04 07:24:52;;;;;;;9.73;2.28;;;10.70;99.90;;;;;;4923888;29;20065;-72
2024/04/04 07:27:18;;;;;;;7.55;2.05;;;10.70;99.90;;;;;;4920107;29;20688;-70
2024/04/04 07:29:44;;;;;;;4.60;1.90;;;10.70;99.90;;;;;;4921894;29;20048;-68
2024/04/04 07:32:10;;;;;;;7.38;2.17;;;10.70;99.90;;;;;;4923913;29;20039;-67
2024/04/04 07:34:36;;;;;;;10.05;2.33;;;10.60;99.90;;;;;;4919988;29;20036;-67
2024/04/04 07:37:02;;;;;;;9.73;2.30;;;10.60;99.90;;;;;;4925530;29;20130;-68
2024/04/04 07:39:33;;;;;;;9.38;2.17;;;10.60;99.90;;;;;;4919855;29;20662;-66
2024/04/04 07:41:59;;;;;;;;;;;10.70;99.90;;;;;;4920839;29;20035;-67
2024/04/04 07:44:25;;;;;;;6.28;1.80;;;10.70;99.90;;;;;;4923309;29;19922;-67
2024/04/04 07:46:52;;;;;;;6.75;2.13;;;10.70;99.90;;;;;;4917420;29;20118;-66
2024/04/04 07:49:18;;;;;;;9.77;2.80;;;10.70;99.90;;;;;;4923766;29;20047;-69
2024/04/04 07:51:44;;;;;;;9.57;2.03;;;10.70;99.90;;;;;;4921264;29;20032;-69
2024/04/04 07:54:10;;;;;;;9.35;2.15;;;10.70;99.90;;;;;;4921825;29;20028;-69
2024/04/04 07:56:37;;;;;;;9.57;2.08;;;10.60;99.90;;;;;;4917895;29;20461;-70
2024/04/04 07:59:02;;;;;;;7.65;2.00;;;10.60;99.90;;;;;;4918574;29;20028;-70
2024/04/04 08:01:28;;;;;;;6.78;1.95;;;10.60;99.90;;;;;;4918818;29;20072;-70
2024/04/04 08:03:54;;;;;;;7.82;2.35;;;10.60;99.90;;;;;;4919570;29;21582;-70
2024/04/04 08:06:20;;;;;;;7.18;2.28;;;10.60;99.90;;;;;;4920550;29;20032;-71
2024/04/04 08:08:46;;;;;;;7.93;2.45;;;10.60;99.90;;;;;;4919477;29;20042;-70
2024/04/04 08:11:15;;;;;;;6.70;2.10;;;10.50;99.90;;;;;;4923637;29;20028;-71
2024/04/04 08:13:43;;;;;;;7.50;2.17;;;10.60;99.90;;;;;;4920042;29;20028;-73
2024/04/04 08:16:08;;;;;;;7.35;2.50;;;10.60;99.90;;;;;;4921624;29;20400;-69
2024/04/04 08:18:39;;;;;;;5.90;1.95;;;10.60;99.90;;;;;;4921724;29;20039;-71
2024/04/04 08:21:04;;;;;;;5.78;1.80;;;10.60;99.90;;;;;;4915429;29;20024;-71
2024/04/04 08:23:31;;;;;;;7.38;2.33;;;10.60;99.90;;;;;;4921778;29;20079;-70
2024/04/04 08:25:58;;;;;;;7.40;2.20;;;10.60;99.90;;;;;;4917932;29;20051;-71
2024/04/04 08:28:25;;;;;;;4.82;2.40;;;10.60;99.90;;;;;;4916721;29;20497;-73
2024/04/04 08:31:02;;;;;;;6.35;2.35;;;10.60;99.90;;;;;;4935936;28;20028;-70
2024/04/04 08:33:28;;;;;;;5.10;2.40;;;10.60;99.90;;;;;;4919431;29;20024;-72
2024/04/04 08:35:54;;;;;;;5.82;2.40;;;10.60;99.90;;;;;;4922496;29;20024;-69
2024/04/04 08:38:20;;;;;;;4.97;2.13;;;10.70;99.90;;;;;;4920481;29;20031;-70
2024/04/04 08:40:46;;;;;;;5.45;2.30;;;10.70;99.90;;;;;;4917720;29;20050;-70
2024/04/04 08:43:13;;;;;;;4.97;2.28;;;10.80;99.90;;;;;;4922956;29;20034;-73
2024/04/04 08:45:49;;;;;;;7.35;2.58;;;10.80;99.90;;;;;;4917812;29;20039;-70
2024/04/04 08:48:18;;;;;;;5.32;2.40;;;10.80;99.90;;;;;;4921425;29;20031;-70
2024/04/04 08:50:48;;;;;;;4.50;2.50;;;10.80;99.90;;;;;;4917619;29;20485;-68
2024/04/04 08:53:25;;;;;;;5.28;2.70;;;10.80;99.90;;;;;;4920478;29;20056;-70
2024/04/04 08:55:54;;;;;;;4.88;2.88;;;10.90;99.90;;;;;;4933971;28;20064;-72
2024/04/04 08:58:21;;;;;;;7.70;2.95;;;10.90;99.90;;;;;;4917517;29;20031;-69
2024/04/04 09:00:47;;;;;;;5.88;3.10;;;10.90;99.90;;;;;;4916303;29;20713;-70
2024/04/04 09:03:13;;;;;;;5.85;3.13;;;11.00;99.90;;;;;;4920888;29;20670;-70
2024/04/04 09:05:57;;;;;;;5.22;3.00;;;11.00;99.90;;;;;;4916304;29;20031;-70
2024/04/04 09:08:23;;;;;;;5.47;3.55;;;11.10;99.90;;;;;;4915278;29;20088;-70
2024/04/04 09:11:01;;;;;;;6.90;3.50;;;11.10;99.90;;;;;;4919567;29;20401;-69
2024/04/04 09:13:29;;;;;;;6.85;3.65;;;11.10;99.90;;;;;;4921294;29;20634;-69
2024/04/04 09:16:02;;;;;;;5.45;3.58;;;11.10;99.90;;;;;;4920066;29;20059;-69
2024/04/04 09:18:29;;;;;;;6.93;3.40;;;11.20;99.90;;;;;;4918852;29;20060;-69
2024/04/04 09:20:59;;;;;;;4.82;3.80;;;11.20;99.90;;;;;;4917162;29;20028;-69
2024/04/04 09:23:25;;;;;;;5.88;3.60;;;11.20;99.90;;;;;;4900890;29;20150;-69
2024/04/04 09:25:51;;;;;;;5.93;4.30;;;11.20;99.90;;;;;;4916582;29;20087;-69
2024/04/04 09:28:19;;;;;;;6.65;4.10;;;11.30;99.90;;;;;;4922144;28;20840;-68
2024/04/04 09:30:49;;;;;;;6.70;4.38;;;11.30;99.90;;;;;;4917688;29;20099;-69
2024/04/04 09:33:18;;;;;;;5.90;4.25;;;11.30;99.90;;;;;;4919977;29;20078;-69
2024/04/04 09:35:46;;;;;;;7.05;5.03;;;11.30;99.90;;;;;;4920162;29;20393;-71
2024/04/04 09:38:13;;;;;;;7.40;5.13;;;11.30;99.90;;;;;;4919187;29;20039;-70
2024/04/04 09:40:40;;;;;;;8.23;5.10;;;11.40;99.90;;;;;;4916499;29;20032;-69
2024/04/04 09:43:06;;;;;;;8.50;5.63;;;11.40;99.90;;;;;;4915986;29;20580;-69
2024/04/04 09:45:35;;;;;;;7.88;5.68;;;11.40;99.90;;;;;;4910069;29;20104;-69
2024/04/04 09:48:03;;;;;;;7.57;4.95;;;11.40;99.90;;;;;;4919825;29;20043;-71
2024/04/04 09:50:29;;;;;;;9.55;5.70;;;11.40;99.90;;;;;;4919675;29;20398;-69
2024/04/04 09:52:55;;;;;;;7.97;5.50;;;11.50;99.90;;;;;;4920991;29;20416;-70
2024/04/04 09:55:21;;;;;;;8.10;6.18;;;11.50;99.90;;;;;;4920903;29;20035;-70
2024/04/04 09:57:48;;;;;;;8.82;6.18;;;11.50;99.90;;;;;;4920539;29;20686;-69
2024/04/04 10:00:19;;;;;;;7.60;5.95;;;11.50;99.90;;;;;;4918537;29;20046;-69
2024/04/04 10:02:54;;;;;;;7.00;6.20;;;11.60;99.90;;;;;;4917288;29;20078;-69
2024/04/04 10:05:36;;;;;;;6.00;5.40;;;11.60;99.90;;;;;;4925785;29;20504;-69
2024/04/04 10:08:09;;;;;;;10.18;7.03;;;11.60;99.90;;;;;;4922823;29;20438;-69
2024/04/04 10:10:35;;;;;;;7.53;6.68;;;11.60;99.90;;;;;;4918542;29;20047;-69
2024/04/04 10:13:11;;;;;;;9.13;6.97;;;11.70;99.90;;;;;;4942714;28;20039;-69
2024/04/04 10:15:46;;;;;;;7.90;6.68;;;11.70;99.90;;;;;;4918340;29;20115;-69
2024/04/04 10:18:13;;;;;;;8.27;6.53;;;11.70;99.90;;;;;;4922403;29;20032;-70
2024/04/04 10:20:49;;;;;;;8.52;7.40;;;11.70;99.90;;;;;;4918817;29;20548;-70
2024/04/04 10:23:16;;;;;;;8.57;7.38;;;11.70;99.90;;;;;;4918922;29;20046;-69
2024/04/04 10:25:43;;;;;;;8.52;7.60;;;11.80;99.90;;;;;;4920021;29;20095;-69
2024/04/04 10:28:09;;;;;;;8.25;6.82;;;11.80;99.90;;;;;;4919908;29;20104;-69
2024/04/04 10:30:40;;;;;;;9.10;6.88;;;11.80;99.90;;;;;;4925352;29;20500;-69
2024/04/04 10:33:11;;;;;;;9.00;6.95;;;11.90;99.90;;;;;;4937766;28;20083;-71
2024/04/04 10:35:38;;;;;;;9.45;7.50;;;11.90;99.90;;;;;;4921242;29;20040;-69
2024/04/04 10:38:13;;;;;;;9.65;8.35;;;11.90;99.90;;;;;;4923314;29;20070;-69
2024/04/04 10:40:40;;;;;;;7.25;6.55;;;12.00;99.90;;;;;;4925950;29;20043;-69
2024/04/04 10:43:09;;;;;;;8.68;7.43;;;12.00;99.90;;;;;;4924890;29;20047;-69
2024/04/04 10:45:36;;;;;;;8.30;7.13;;;12.00;99.90;;;;;;4922210;29;20054;-71
2024/04/04 10:48:02;;;;;;;8.20;7.40;;;12.10;99.90;;;;;;4922769;29;20046;-69
2024/04/04 10:50:30;;;;;;;8.85;6.70;;;12.10;99.90;;;;;;4920410;29;20091;-69
2024/04/04 10:52:57;;;;;;;7.60;6.90;;;12.10;99.90;;;;;;4920357;29;20028;-68
2024/04/04 10:55:25;;;;;;;9.52;6.70;;;12.20;99.90;;;;;;4928650;29;20063;-69
2024/04/04 10:57:52;;;;;;;9.98;6.60;;;12.20;99.90;;;;;;4939671;28;20473;-70
2024/04/04 11:00:19;;;;;;;7.50;6.45;;;12.20;99.90;;;;;;4920506;29;20036;-69
2024/04/04 11:02:50;;;;;;;8.98;6.40;;;12.30;99.90;;;;;;4916991;29;20102;-71
2024/04/04 11:05:19;;;;;;;6.35;5.70;;;12.30;99.90;;;;;;4920388;29;20098;-70
2024/04/04 11:07:46;;;;;;;7.13;5.53;;;12.30;99.90;;;;;;4924626;29;20032;-69
2024/04/04 11:10:15;;;;;;;6.00;5.40;;;12.30;99.90;;;;;;4925872;29;20036;-70
2024/04/04 11:12:44;;;;;;;6.50;5.80;;;12.40;99.90;;;;;;4922812;29;20501;-69
2024/04/04 11:15:13;;;;;;;7.07;6.00;;;12.40;99.90;;;;;;4922629;28;20024;-70
2024/04/04 11:17:40;;;;;;;12.50;8.82;;;12.50;99.90;;;;;;4920780;29;20020;-69
2024/04/04 11:20:14;;;;;;;19.35;11.82;;;12.60;99.90;;;;;;4923036;29;21742;-66
2024/04/04 11:22:41;;;;;;;9.15;7.75;;;12.60;99.90;;;;;;4921298;29;20035;-67
2024/04/04 11:25:08;;;;;;;10.20;7.88;;;12.60;99.90;;;;;;4917593;29;20148;-67
2024/04/04 11:27:38;;;;;;;8.68;6.03;;;12.70;99.90;;;;;;4924754;29;20035;-67
2024/04/04 11:30:06;;;;;;;9.13;5.90;;;12.80;99.90;;;;;;4924925;29;20050;-67
2024/04/04 11:32:32;;;;;;;6.60;4.75;;;12.80;99.90;;;;;;4920174;29;20024;-67
2024/04/04 11:34:58;;;;;;;5.45;4.28;;;12.80;99.90;;;;;;4939259;28;20115;-67
2024/04/04 11:37:25;;;;;;;5.63;3.95;;;12.80;99.90;;;;;;4904246;29;20036;-67
2024/04/04 11:39:52;;;;;;;4.22;3.83;;;12.90;99.90;;;;;;4915437;29;20650;-66
2024/04/04 11:42:18;;;;;;;5.43;4.00;;;12.90;99.90;;;;;;4920997;29;20126;-68
2024/04/04 11:44:44;;;;;;;7.93;4.35;;;12.80;99.90;;;;;;4917637;29;20066;-67
2024/04/04 11:47:11;;;;;;;6.65;3.83;;;12.90;99.90;;;;;;4923161;29;20055;-68
2024/04/04 11:49:36;;;;;;;5.53;3.80;;;12.90;99.90;;;;;;4925206;28;20074;-68
2024/04/04 11:52:03;;;;;;;5.40;3.80;;;12.80;99.90;;;;;;4921726;29;20043;-67
2024/04/04 11:54:28;;;;;;;3.72;3.38;;;12.80;99.90;;;;;;4922328;29;20043;-69
2024/04/04 11:56:54;;;;;;;5.07;3.50;;;12.80;99.90;;;;;;4920793;29;20023;-69
2024/04/04 11:59:20;;;;;;;4.78;3.40;;;12.80;99.90;;;;;;4914975;29;20039;-69
2024/04/04 12:01:46;;;;;;;4.97;3.47;;;12.70;99.90;;;;;;4917100;29;20515;-69
2024/04/04 12:04:13;;;;;;;4.65;3.40;;;12.70;99.90;;;;;;4916594;29;20043;-70
2024/04/04 12:06:39;;;;;;;5.43;4.15;;;12.70;99.90;;;;;;4918575;29;20480;-67
2024/04/04 12:09:09;;;;;;;5.13;3.00;;;12.70;99.90;;;;;;4919987;29;20062;-69
2024/04/04 12:11:40;;;;;;;7.63;3.20;;;12.80;99.90;;;;;;4919403;29;20039;-69
2024/04/04 12:14:07;;;;;;;5.97;3.40;;;12.70;99.90;;;;;;4916373;29;20489;-68
2024/04/04 12:16:33;;;;;;;5.72;3.38;;;12.70;99.90;;;;;;4922399;29;20115;-68
2024/04/04 12:21:44;;;;;;;4.40;2.70;;;12.70;99.90;;;;;;4923086;29;20040;-67
2024/04/04 12:24:12;;;;;;;5.85;3.88;;;12.70;99.90;;;;;;4920924;29;20036;-67
2024/04/04 12:26:38;;;;;;;5.57;4.15;;;12.70;99.90;;;;;;4925223;29;20452;-67
2024/04/04 12:29:04;;;;;;;2.97;2.00;;;12.70;99.90;;;;;;4920617;29;20024;-67
2024/04/04 12:31:30;;;;;;;3.83;1.60;;;12.70;99.90;;;;;;4921909;29;20044;-68
2024/04/04 12:33:56;;;;;;;5.50;3.20;;;12.70;99.90;;;;;;4922155;29;20043;-67
2024/04/04 12:36:22;;;;;;;2.78;1.77;;;12.70;99.90;;;;;;4924756;29;20031;-67
2024/04/04 12:38:48;;;;;;;3.28;1.50;;;12.70;99.90;;;;;;4934914;28;20101;-67
2024/04/04 12:41:13;;;;;;;2.40;1.50;;;12.70;99.90;;;;;;4919174;29;20051;-67
2024/04/04 12:43:39;;;;;;;2.97;1.70;;;12.70;99.90;;;;;;4918128;29;20481;-67
2024/04/04 12:46:05;;;;;;;4.10;1.92;;;12.70;99.90;;;;;;4916035;29;20462;-66